Latest Flight | Flight Log | Data Trends | Login | Join FlightData.com!
Date Range From To
Export:
Flight Log - PRZKT - Click on row to view flight. Click on header to sort.
Date Origin Dest Depart Arrive Hobbs Flight Time Flight Distance Fuel Fuel/hr Fuel/nm Altitude Gnd Speed
Tue, Aug 11, 2020 SBFL SBFL 17:53 17:57 0.07 hrs 0.00 hrs 0.00 nm 0.22 gal 3.13 gal/hr 0.00 gal/nm 0 msl 0 kts
Tue, Aug 11, 2020 SBFL SBFL 17:37 17:45 0.12 hrs 0.00 hrs 0.00 nm 0.32 gal 2.67 gal/hr 0.00 gal/nm 0 msl 0 kts
Tue, Aug 11, 2020 SBCH SBFL 14:10 15:43 1.52 hrs 1.31 hrs 219.10 nm 16.96 gal 11.14 gal/hr 0.08 gal/nm 9793 msl 164 kts
Tue, Aug 11, 2020 SBFL SBCH 11:54 13:44 1.8 hrs 1.58 hrs 224.43 nm 22.53 gal 12.48 gal/hr 0.10 gal/nm 8801 msl 140 kts
Mon, Aug 10, 2020 SBNF SBFL 13:43 16:05 2.33 hrs 0.25 hrs 30.55 nm 3.81 gal 1.64 gal/hr 0.12 gal/nm 1250 msl 119 kts
Mon, Aug 10, 2020 SBFL SBNF 13:02 13:35 0.56 hrs 0.28 hrs 32.12 nm 4.39 gal 7.90 gal/hr 0.14 gal/nm 1534 msl 113 kts
Wed, Aug 5, 2020 SWNV SBFL 12:30 17:21 4.77 hrs 4.13 hrs 666.19 nm 48.64 gal 10.20 gal/hr 0.07 gal/nm 8804 msl 158 kts
Tue, Aug 4, 2020 SWNV SWNV 20:53 20:56 0.06 hrs 0.00 hrs 0.00 nm 0.00 gal 0.00 gal/hr 0.00 gal/nm 0 msl 0 kts
Tue, Aug 4, 2020 SWNV SWNV 20:39 20:40 0.02 hrs 0.00 hrs 0.00 nm 0.00 gal 0.00 gal/hr 0.00 gal/nm 0 msl 0 kts
Tue, Aug 4, 2020 SWNV SWNV 20:10 20:16 0.1 hrs 0.00 hrs 0.00 nm 0.00 gal 0.00 gal/hr 0.00 gal/nm 0 msl 0 kts
Tue, Aug 4, 2020 SWNV SWNV 18:19 18:19 0 hrs 0.00 hrs 0.00 nm 0.00 gal 0.00 gal/hr 0.00 gal/nm 0 msl 0 kts
Tue, Aug 4, 2020 SWNV SWNV 17:26 18:15 0.8 hrs 0.59 hrs 83.20 nm 7.72 gal 9.69 gal/hr 0.09 gal/nm 5540 msl 140 kts
Tue, Aug 4, 2020 SWNV SWNV 17:16 17:20 0.06 hrs 0.00 hrs 0.00 nm 0.25 gal 4.41 gal/hr 0.00 gal/nm 0 msl 0 kts
Tue, Aug 4, 2020 SWNV SWNV 17:04 17:08 0.06 hrs 0.00 hrs 0.00 nm 0.00 gal 0.00 gal/hr 0.00 gal/nm 0 msl 0 kts
Tue, Aug 4, 2020 SWNV SWNV 16:52 16:53 0.01 hrs 0.00 hrs 0.00 nm 0.00 gal 0.00 gal/hr 0.00 gal/nm 0 msl 0 kts
Tue, Aug 4, 2020 SWNV SWNV 15:10 15:13 0.05 hrs 0.00 hrs 0.00 nm 0.00 gal 0.00 gal/hr 0.00 gal/nm 0 msl 0 kts
Tue, Aug 4, 2020 SWNV SWNV 14:31 14:53 0.37 hrs 0.01 hrs 0.00 nm 0.00 gal 0.00 gal/hr 0.00 gal/nm 3721 msl 0 kts
Tue, Aug 4, 2020 SWNV SWNV 12:53 13:07 0.22 hrs 0.02 hrs 0.00 nm 0.00 gal 0.00 gal/hr 0.00 gal/nm 2709 msl 0 kts
Tue, Aug 4, 2020 SWNV SWNV 12:40 12:51 0.18 hrs 0.00 hrs 0.00 nm 0.00 gal 0.00 gal/hr 0.00 gal/nm 2905 msl 0 kts
Tue, Aug 4, 2020 SWNV SWNV 11:41 12:38 0.94 hrs 0.52 hrs 78.41 nm 8.29 gal 8.86 gal/hr 0.11 gal/nm 4680 msl 147 kts
Tue, Aug 4, 2020 SWNV SWNV 11:05 11:06 0.01 hrs 0.00 hrs 0.00 nm 0.00 gal 0.00 gal/hr 0.00 gal/nm 0 msl 0 kts
Mon, Aug 3, 2020 SWNV SWNV 22:42 22:44 0.03 hrs 0.00 hrs 0.00 nm 0.00 gal 0.00 gal/hr 0.00 gal/nm 0 msl 0 kts
Mon, Aug 3, 2020 SWNV SWNV 22:33 22:42 0.15 hrs 0.00 hrs 0.00 nm 0.00 gal 0.00 gal/hr 0.00 gal/nm 0 msl 0 kts
Mon, Aug 3, 2020 SWNV SWNV 22:19 22:31 0.2 hrs 0.00 hrs 0.00 nm 0.00 gal 0.00 gal/hr 0.00 gal/nm 2566 msl 0 kts
Mon, Aug 3, 2020 SWNV SWNV 21:53 22:02 0.15 hrs 0.00 hrs 0.00 nm 0.00 gal 0.00 gal/hr 0.00 gal/nm 0 msl 0 kts
Mon, Aug 3, 2020 SWNV SWNV 21:48 21:52 0.06 hrs 0.00 hrs 0.00 nm 0.00 gal 0.00 gal/hr 0.00 gal/nm 0 msl 0 kts
Mon, Aug 3, 2020 SWNV SWNV 20:13 20:24 0.18 hrs 0.00 hrs 0.00 nm 0.00 gal 0.00 gal/hr 0.00 gal/nm 0 msl 0 kts
Mon, Aug 3, 2020 SWNV SWNV 20:09 20:13 0.06 hrs 0.00 hrs 0.00 nm 0.00 gal 0.00 gal/hr 0.00 gal/nm 0 msl 0 kts
Mon, Aug 3, 2020 SWNV SWNV 19:19 19:55 0.59 hrs 0.40 hrs 59.84 nm 6.45 gal 11.02 gal/hr 0.11 gal/nm 4524 msl 146 kts
Mon, Aug 3, 2020 SWNV SWNV 19:12 19:17 0.08 hrs 0.00 hrs 0.00 nm 0.29 gal 3.71 gal/hr 0.00 gal/nm 0 msl 0 kts
Mon, Aug 3, 2020 SWNV SWNV 18:15 18:18 0.05 hrs 0.00 hrs 0.00 nm 0.19 gal 3.48 gal/hr 0.00 gal/nm 0 msl 0 kts
Mon, Aug 3, 2020 SWNV SWNV 17:37 17:37 0.01 hrs 0.00 hrs 0.00 nm 0.00 gal 0.00 gal/hr 0.00 gal/nm 0 msl 0 kts
Mon, Aug 3, 2020 SWNV SWNV 17:18 17:18 0 hrs 0.00 hrs 0.00 nm 0.02 gal 3.35 gal/hr 0.00 gal/nm 0 msl 0 kts
Mon, Aug 3, 2020 SWNV SWNV 17:01 17:09 0.12 hrs 0.00 hrs 0.00 nm 0.43 gal 3.63 gal/hr 0.00 gal/nm 0 msl 0 kts
Mon, Aug 3, 2020 SWNV SWNV 16:42 16:42 0 hrs 0.00 hrs 0.00 nm 0.00 gal 0.00 gal/hr 0.00 gal/nm 0 msl 0 kts
Mon, Aug 3, 2020 SWNV SWNV 14:35 14:36 0.01 hrs 0.00 hrs 0.00 nm 0.00 gal 0.00 gal/hr 0.00 gal/nm 0 msl 0 kts
Mon, Aug 3, 2020 SWNV SWNV 14:31 14:32 0.02 hrs 0.00 hrs 0.00 nm 0.00 gal 0.00 gal/hr 0.00 gal/nm 0 msl 0 kts
Mon, Aug 3, 2020 SWNV SWNV 12:34 12:35 0.01 hrs 0.00 hrs 0.00 nm 0.00 gal 0.00 gal/hr 0.00 gal/nm 0 msl 0 kts
Mon, Aug 3, 2020 SWNV SWNV 12:26 12:26 0.01 hrs 0.00 hrs 0.00 nm 0.00 gal 0.00 gal/hr 0.00 gal/nm 0 msl 0 kts
Mon, Aug 3, 2020 SWNV SWNV 12:21 12:24 0.05 hrs 0.00 hrs 0.00 nm 0.00 gal 0.00 gal/hr 0.00 gal/nm 0 msl 0 kts
Mon, Aug 3, 2020 SWNV SWNV 12:18 12:19 0.02 hrs 0.00 hrs 0.00 nm 0.00 gal 0.00 gal/hr 0.00 gal/nm 0 msl 0 kts
Mon, Aug 3, 2020 SWNV SWNV 12:07 12:09 0.04 hrs 0.00 hrs 0.00 nm 0.00 gal 0.00 gal/hr 0.00 gal/nm 0 msl 0 kts
Mon, Aug 3, 2020 SWNV SWNV 11:39 11:42 0.06 hrs 0.00 hrs 0.00 nm 0.23 gal 4.05 gal/hr 0.00 gal/nm 0 msl 0 kts
Mon, Aug 3, 2020 SWNV SWNV 11:25 11:29 0.07 hrs 0.00 hrs 0.00 nm 0.26 gal 3.63 gal/hr 0.00 gal/nm 0 msl 0 kts
Fri, Jul 31, 2020 SWNV SWNV 19:46 19:48 0.02 hrs 0.00 hrs 0.00 nm 0.06 gal 3.20 gal/hr 0.00 gal/nm 0 msl 0 kts
Fri, Jul 31, 2020 SWNV SWNV 19:29 19:33 0.06 hrs 0.00 hrs 0.00 nm 0.29 gal 5.08 gal/hr 0.00 gal/nm 0 msl 0 kts
Tue, Jul 28, 2020 SWNV SWNV 21:10 21:14 0.06 hrs 0.00 hrs 0.00 nm 0.00 gal 0.00 gal/hr 0.00 gal/nm 0 msl 0 kts
Tue, Jul 28, 2020 SWNV SWNV 21:03 21:08 0.09 hrs 0.01 hrs 0.00 nm 0.00 gal 0.00 gal/hr 0.00 gal/nm 4004 msl 0 kts
Tue, Jul 28, 2020 SWNV SWNV 11:41 11:43 0.03 hrs 0.00 hrs 0.00 nm 0.00 gal 0.00 gal/hr 0.00 gal/nm 4094 msl 0 kts
Mon, Jul 27, 2020 SWNV SWNV 12:53 12:57 0.07 hrs 0.00 hrs 0.00 nm 0.00 gal 0.00 gal/hr 0.00 gal/nm 0 msl 0 kts
Fri, Jul 24, 2020 SWNV SWNV 20:09 20:44 0.57 hrs 0.40 hrs 58.24 nm 6.15 gal 10.83 gal/hr 0.11 gal/nm 4524 msl 144 kts
Fri, Jul 24, 2020 SWNV SWNV 18:43 18:44 0.01 hrs 0.00 hrs 0.00 nm 0.00 gal 0.00 gal/hr 0.00 gal/nm 0 msl 0 kts
Fri, Jul 24, 2020 SWNV SWNV 14:00 14:06 0.09 hrs 0.00 hrs 0.00 nm 0.00 gal 0.00 gal/hr 0.00 gal/nm 0 msl 0 kts
Fri, Jul 24, 2020 SWNV SWNV 13:57 13:58 0.01 hrs 0.00 hrs 0.00 nm 0.00 gal 0.00 gal/hr 0.00 gal/nm 0 msl 0 kts
Mon, Jul 6, 2020 SWNV SWNV 18:23 18:24 0.02 hrs 0.00 hrs 0.00 nm 0.06 gal 3.77 gal/hr 0.00 gal/nm 0 msl 0 kts
Mon, Jul 6, 2020 SWNV SWNV 18:15 18:22 0.13 hrs 0.00 hrs 0.00 nm 0.55 gal 4.39 gal/hr 0.00 gal/nm 0 msl 0 kts
Mon, Jul 6, 2020 SWNV SWNV 17:21 17:29 0.13 hrs 0.00 hrs 0.00 nm 0.57 gal 4.25 gal/hr 0.00 gal/nm 0 msl 0 kts
Fri, Jul 3, 2020 SWNV SWNV 20:04 20:17 0.22 hrs 0.00 hrs 0.00 nm 0.34 gal 1.57 gal/hr 0.00 gal/nm 0 msl 0 kts
Thu, Jul 2, 2020 SWNV SWNV 23:23 23:28 0.08 hrs 0.00 hrs 0.00 nm 0.26 gal 3.38 gal/hr 0.00 gal/nm 0 msl 0 kts
Thu, Jul 2, 2020 SWNV SWNV 23:08 23:22 0.23 hrs 0.00 hrs 0.00 nm 0.96 gal 4.16 gal/hr 0.00 gal/nm 0 msl 0 kts
Thu, Jul 2, 2020 SWNV SWNV 22:58 23:04 0.09 hrs 0.00 hrs 0.00 nm 0.37 gal 3.98 gal/hr 0.00 gal/nm 0 msl 0 kts
Tue, Jun 16, 2020 SWNV SWNV 20:35 20:41 0.09 hrs 0.00 hrs 0.00 nm 0.42 gal 4.75 gal/hr 0.00 gal/nm 0 msl 0 kts
Tue, Jun 16, 2020 SWNV SWNV 11:37 11:49 0.2 hrs 0.00 hrs 0.00 nm 0.66 gal 3.24 gal/hr 0.00 gal/nm 0 msl 0 kts
Fri, Jun 12, 2020 SWNV SWNV 19:26 19:35 0.14 hrs 0.00 hrs 0.00 nm 0.00 gal 0.00 gal/hr 0.00 gal/nm 0 msl 0 kts
Wed, Jun 3, 2020 SWNV SWNV 12:40 12:50 0.18 hrs 0.00 hrs 0.00 nm 0.00 gal 0.00 gal/hr 0.00 gal/nm 0 msl 0 kts
Tue, Jun 2, 2020 SWNV SWNV 21:01 21:02 0.02 hrs 0.00 hrs 0.00 nm 0.00 gal 0.00 gal/hr 0.00 gal/nm 0 msl 0 kts
Wed, May 27, 2020 SWNV SWNV 14:37 14:40 0.05 hrs 0.00 hrs 0.00 nm 0.00 gal 0.00 gal/hr 0.00 gal/nm 0 msl 0 kts
Mon, May 25, 2020 SWNV SWNV 20:31 20:34 0.05 hrs 0.00 hrs 0.00 nm 0.00 gal 0.00 gal/hr 0.00 gal/nm 0 msl 0 kts
Mon, Mar 9, 2020 SBBT SWNV 13:15 15:07 1.83 hrs 1.58 hrs 245.25 nm 22.79 gal 12.43 gal/hr 0.09 gal/nm 7795 msl 152 kts
Mon, Mar 9, 2020 SBFL SBBT 09:39 12:29 2.79 hrs 2.62 hrs 427.94 nm 38.66 gal 13.84 gal/hr 0.09 gal/nm 9795 msl 160 kts
Sun, Mar 8, 2020 SBFL SBFL 20:25 20:35 0.17 hrs 0.00 hrs 0.00 nm 0.44 gal 2.65 gal/hr 0.00 gal/nm 0 msl 0 kts
Sun, Mar 8, 2020 SBFL SBFL 20:12 20:14 0.03 hrs 0.00 hrs 0.00 nm 0.00 gal 0.00 gal/hr 0.00 gal/nm 0 msl 0 kts
Sun, Mar 8, 2020 SBFL SBFL 20:00 20:12 0.19 hrs 0.00 hrs 0.00 nm 0.59 gal 3.10 gal/hr 0.00 gal/nm 0 msl 0 kts
Sun, Mar 8, 2020 SSBL SBFL 14:38 15:18 0.66 hrs 0.45 hrs 67.17 nm 7.67 gal 11.66 gal/hr 0.11 gal/nm 3769 msl 148 kts
Sat, Mar 7, 2020 SBFL SSBL 13:27 14:13 0.76 hrs 0.47 hrs 62.52 nm 8.31 gal 10.91 gal/hr 0.13 gal/nm 3014 msl 131 kts
Fri, Mar 6, 2020 SBFL SBFL 16:35 16:46 0.19 hrs 0.00 hrs 0.00 nm 0.00 gal 0.00 gal/hr 0.00 gal/nm 0 msl 0 kts
Fri, Feb 28, 2020 SBFL SBFL 23:20 23:37 0.29 hrs 0.00 hrs 0.00 nm 0.94 gal 3.27 gal/hr 0.00 gal/nm 0 msl 0 kts
Fri, Feb 28, 2020 SBFL SBFL 12:10 13:03 0.87 hrs 0.66 hrs 67.79 nm 8.41 gal 9.65 gal/hr 0.12 gal/nm 1127 msl 100 kts
Sat, Jan 25, 2020 SBFL SBFL 13:12 14:00 0.78 hrs 0.56 hrs 62.14 nm 7.57 gal 9.74 gal/hr 0.12 gal/nm 1203 msl 110 kts
Sun, Jan 19, 2020 SBFL SBFL 12:06 12:10 0.07 hrs 0.00 hrs 0.00 nm 0.00 gal 0.00 gal/hr 0.00 gal/nm 0 msl 0 kts
Sun, Jan 19, 2020 SBFL SBFL 11:46 11:47 0.02 hrs 0.00 hrs 0.00 nm 0.00 gal 0.00 gal/hr 0.00 gal/nm 0 msl 0 kts
Sun, Jan 5, 2020 SBFL SBFL 14:14 14:18 0.06 hrs 0.00 hrs 0.01 nm 0.22 gal 3.42 gal/hr 21.68 gal/nm 17 msl 49 kts
Sun, Jan 5, 2020 SBFL SBFL 13:39 14:05 0.44 hrs 0.23 hrs 25.09 nm 3.87 gal 8.82 gal/hr 0.15 gal/nm 1656 msl 105 kts
Wed, Dec 18, 2019 SBFL SBFL 14:48 14:48 0.01 hrs 0.00 hrs 0.00 nm 0.00 gal 0.00 gal/hr 0.00 gal/nm 0 msl 0 kts
Wed, Dec 18, 2019 SBNF SBFL 13:57 14:22 0.41 hrs 0.27 hrs 32.43 nm 4.43 gal 10.79 gal/hr 0.14 gal/nm 1057 msl 119 kts
Tue, Dec 17, 2019 SBNF SBNF 16:50 16:52 0.03 hrs 0.00 hrs 0.00 nm 0.13 gal 4.33 gal/hr 0.00 gal/nm 0 msl 0 kts
Tue, Dec 17, 2019 SBNF SBNF 14:32 14:35 0.05 hrs 0.00 hrs 0.00 nm 0.22 gal 4.72 gal/hr 0.00 gal/nm 0 msl 0 kts
Tue, Dec 17, 2019 SBFL SBNF 10:54 11:19 0.42 hrs 0.22 hrs 30.81 nm 4.19 gal 10.07 gal/hr 0.14 gal/nm 1031 msl 135 kts
Sun, Nov 24, 2019 SBFL SBFL 13:40 14:28 0.8 hrs 0.57 hrs 69.77 nm 8.81 gal 11.09 gal/hr 0.13 gal/nm 2353 msl 119 kts
Sat, Nov 23, 2019 SBFL SBFL 13:07 14:05 0.96 hrs 0.71 hrs 91.38 nm 11.41 gal 11.89 gal/hr 0.12 gal/nm 1236 msl 127 kts
Fri, Nov 15, 2019 SBFL SBFL 13:49 13:54 0.08 hrs 0.00 hrs 0.00 nm 0.20 gal 2.46 gal/hr 0.00 gal/nm 0 msl 0 kts
Fri, Nov 15, 2019 SBFL SBFL 13:40 13:45 0.08 hrs 0.00 hrs 0.00 nm 0.21 gal 2.79 gal/hr 0.00 gal/nm 0 msl 0 kts
Tue, Oct 22, 2019 SBFL SBFL 11:15 12:06 0.84 hrs 0.44 hrs 56.58 nm 6.57 gal 7.85 gal/hr 0.12 gal/nm 1251 msl 127 kts
Wed, Oct 9, 2019 SSCN SBFL 16:38 18:07 1.46 hrs 1.18 hrs 191.67 nm 18.62 gal 12.72 gal/hr 0.10 gal/nm 5536 msl 160 kts
Wed, Oct 9, 2019 SBFL SSCN 13:16 14:44 1.45 hrs 1.21 hrs 186.70 nm 19.95 gal 13.76 gal/hr 0.11 gal/nm 6528 msl 152 kts
Mon, Oct 7, 2019 SBFL SBFL 19:46 20:36 0.82 hrs 0.63 hrs 74.45 nm 8.60 gal 10.46 gal/hr 0.12 gal/nm 1481 msl 117 kts
Tue, Sep 3, 2019 SBFL SBFL 19:37 19:44 0.1 hrs 0.00 hrs 0.00 nm 0.29 gal 2.85 gal/hr 0.00 gal/nm 0 msl 0 kts
Tue, Sep 3, 2019 SBFL SBFL 18:39 19:17 0.62 hrs 0.44 hrs 52.77 nm 6.29 gal 10.22 gal/hr 0.12 gal/nm 1111 msl 119 kts
Tue, Sep 3, 2019 SBFL SBFL 18:29 18:32 0.04 hrs 0.00 hrs 0.00 nm 0.00 gal 0.00 gal/hr 0.00 gal/nm 0 msl 0 kts
Sat, Aug 17, 2019 SSCN SBFL 14:40 16:13 1.52 hrs 1.25 hrs 191.64 nm 20.40 gal 13.45 gal/hr 0.11 gal/nm 7555 msl 150 kts
Fri, Aug 16, 2019 SBFL SSCN 13:25 14:55 1.46 hrs 1.22 hrs 188.87 nm 19.57 gal 13.39 gal/hr 0.10 gal/nm 6514 msl 152 kts
Thu, Aug 15, 2019 SBFL SBFL 16:52 17:30 0.62 hrs 0.44 hrs 53.87 nm 6.72 gal 10.82 gal/hr 0.12 gal/nm 1114 msl 120 kts
Thu, Aug 1, 2019 SBNF SBFL 17:14 17:44 0.49 hrs 0.23 hrs 31.32 nm 4.43 gal 9.09 gal/hr 0.14 gal/nm 1104 msl 133 kts
Thu, Aug 1, 2019 SBFL SBNF 11:17 11:43 0.44 hrs 0.24 hrs 28.51 nm 4.44 gal 10.08 gal/hr 0.16 gal/nm 1044 msl 115 kts
Wed, Jul 17, 2019 SBFL SBFL 13:05 14:13 1.12 hrs 0.86 hrs 104.74 nm 11.69 gal 10.43 gal/hr 0.11 gal/nm 1250 msl 120 kts
Sun, Jul 14, 2019 SBBI SBFL 14:00 15:16 1.25 hrs 1.01 hrs 163.44 nm 16.35 gal 13.05 gal/hr 0.10 gal/nm 6626 msl 159 kts
Sat, Jul 13, 2019 SBFL SBBI 13:51 15:09 1.28 hrs 1.06 hrs 161.05 nm 16.98 gal 13.23 gal/hr 0.11 gal/nm 5652 msl 149 kts
Thu, Jul 11, 2019 SBFL SBFL 19:19 19:40 0.34 hrs 0.21 hrs 18.41 nm 3.22 gal 9.50 gal/hr 0.17 gal/nm 1135 msl 87 kts
Thu, Jul 4, 2019 SBFL SBFL 18:43 20:09 1.42 hrs 1.20 hrs 185.63 nm 18.34 gal 12.91 gal/hr 0.10 gal/nm 9508 msl 152 kts
Tue, Jun 25, 2019 SDAI SBFL 18:10 20:10 1.97 hrs 1.82 hrs 307.86 nm 25.39 gal 12.89 gal/hr 0.08 gal/nm 10798 msl 166 kts
Tue, Jun 25, 2019 SDAI SDAI 16:41 16:52 0.18 hrs 0.00 hrs 0.00 nm 0.00 gal 0.00 gal/hr 0.00 gal/nm 0 msl 0 kts
Mon, Jun 24, 2019 SBSC SDAI 14:32 16:19 1.74 hrs 1.59 hrs 243.71 nm 24.87 gal 14.28 gal/hr 0.10 gal/nm 5018 msl 151 kts
Sun, Jun 23, 2019 SBFL SBSC 16:25 19:25 2.95 hrs 2.80 hrs 446.44 nm 38.94 gal 13.19 gal/hr 0.09 gal/nm 9705 msl 157 kts
Wed, Jun 12, 2019 SBFL SBFL 12:23 13:47 1.38 hrs 1.14 hrs 149.03 nm 16.36 gal 11.88 gal/hr 0.11 gal/nm 1515 msl 128 kts
Wed, Jun 5, 2019 SBFL SBFL 19:36 20:00 0.41 hrs 0.30 hrs 25.15 nm 3.46 gal 8.51 gal/hr 0.14 gal/nm 2674 msl 84 kts
Tue, May 21, 2019 SSYB SBFL 14:24 14:48 0.39 hrs 0.30 hrs 39.15 nm 4.45 gal 11.53 gal/hr 0.11 gal/nm 1017 msl 128 kts
Sat, Apr 20, 2019 SBFL SBFL 19:16 19:56 0.65 hrs 0.51 hrs 62.82 nm 7.76 gal 11.96 gal/hr 0.12 gal/nm 1276 msl 120 kts
Thu, Apr 11, 2019 SBFL SBFL 16:15 16:47 0.53 hrs 0.34 hrs 33.98 nm 4.34 gal 8.15 gal/hr 0.13 gal/nm 2717 msl 98 kts
Wed, Apr 3, 2019 SDAI SBFL 16:03 18:09 2.07 hrs 1.95 hrs 311.45 nm 27.26 gal 13.16 gal/hr 0.09 gal/nm 8809 msl 156 kts
Wed, Apr 3, 2019 SDAI SDAI 14:09 14:26 0.29 hrs 0.18 hrs 22.89 nm 3.07 gal 10.46 gal/hr 0.13 gal/nm 4054 msl 125 kts
Wed, Apr 3, 2019 SBFL SDAI 09:27 11:35 2.11 hrs 1.93 hrs 307.60 nm 23.50 gal 11.14 gal/hr 0.08 gal/nm 9845 msl 157 kts
Mon, Apr 1, 2019 SBFL SBFL 19:32 20:01 0.48 hrs 0.32 hrs 33.84 nm 4.15 gal 8.61 gal/hr 0.12 gal/nm 2027 msl 104 kts
Sat, Mar 30, 2019 SBNF SBFL 17:50 18:23 0.53 hrs 0.38 hrs 54.06 nm 6.68 gal 12.53 gal/hr 0.12 gal/nm 1778 msl 139 kts
Sat, Mar 30, 2019 SBFL SBNF 14:19 14:54 0.57 hrs 0.43 hrs 55.33 nm 7.06 gal 12.33 gal/hr 0.13 gal/nm 2017 msl 127 kts
Tue, Mar 26, 2019 SSOG SBFL 11:32 13:38 2.06 hrs 1.89 hrs 312.60 nm 23.68 gal 11.47 gal/hr 0.08 gal/nm 9684 msl 162 kts
Mon, Mar 25, 2019 SBFL SSOG 09:10 11:27 2.24 hrs 2.04 hrs 308.58 nm 25.51 gal 11.38 gal/hr 0.08 gal/nm 10805 msl 148 kts
Mon, Mar 4, 2019 SBBI SBFL 13:28 14:37 1.14 hrs 0.91 hrs 152.10 nm 14.85 gal 13.07 gal/hr 0.10 gal/nm 8696 msl 164 kts
Sat, Mar 2, 2019 SBFL SBBI 15:47 17:03 1.25 hrs 1.11 hrs 162.80 nm 15.79 gal 12.65 gal/hr 0.10 gal/nm 7512 msl 144 kts
Thu, Dec 20, 2018 SDAI SDAI 15:21 17:01 1.63 hrs 0.00 hrs 0.00 nm 0.00 gal 0.00 gal/hr 0.00 gal/nm 0 msl 0 kts
Mon, Nov 7, 2016 SBPA SBFL 12:26 14:24 1.97 hrs 1.39 hrs 218.59 nm 18.84 gal 9.57 gal/hr 0.09 gal/nm 7979 msl 157 kts
Sun, Nov 6, 2016 SBFL SBPA 17:22 18:53 1.51 hrs 1.26 hrs 205.15 nm 16.83 gal 11.15 gal/hr 0.08 gal/nm 8871 msl 163 kts
Sun, Nov 6, 2016 SBFL SBFL 13:21 13:25 0.07 hrs 0.00 hrs 0.00 nm 0.19 gal 2.75 gal/hr 0.00 gal/nm 0 msl 0 kts
Sun, Nov 6, 2016 SBFL SBFL 13:12 13:16 0.08 hrs 0.00 hrs 0.00 nm 0.25 gal 3.04 gal/hr 0.00 gal/nm 0 msl 0 kts
Sun, Oct 23, 2016 SBFL SBFL 18:54 18:57 0.05 hrs 0.00 hrs 0.00 nm 0.14 gal 2.91 gal/hr 0.00 gal/nm 0 msl 0 kts
Sun, Oct 23, 2016 SBFL SBFL 18:45 18:47 0.04 hrs 0.00 hrs 0.00 nm 0.16 gal 3.73 gal/hr 0.00 gal/nm 0 msl 0 kts
Sat, Oct 22, 2016 SSSG SBFL 17:47 20:13 2.43 hrs 2.26 hrs 367.68 nm 26.42 gal 10.87 gal/hr 0.07 gal/nm 9833 msl 163 kts
Sat, Oct 22, 2016 SBFL SSSG 09:41 12:09 2.46 hrs 2.29 hrs 343.45 nm 28.02 gal 11.38 gal/hr 0.08 gal/nm 8957 msl 150 kts
Fri, Oct 21, 2016 SBFL SBFL 17:30 17:33 0.05 hrs 0.00 hrs 0.00 nm 0.19 gal 3.75 gal/hr 0.00 gal/nm 0 msl 0 kts
Fri, Oct 21, 2016 SBFL SBFL 17:20 17:26 0.1 hrs 0.00 hrs 0.00 nm 0.51 gal 4.89 gal/hr 0.00 gal/nm 0 msl 0 kts
Sat, Oct 15, 2016 SBFL SBFL 13:46 14:13 0.45 hrs 0.22 hrs 21.08 nm 3.14 gal 6.99 gal/hr 0.15 gal/nm 1447 msl 97 kts
Tue, Sep 27, 2016 SBFL SBFL 18:00 18:04 0.06 hrs 0.00 hrs 0.00 nm 0.20 gal 3.36 gal/hr 0.00 gal/nm 0 msl 0 kts
Tue, Sep 27, 2016 SBPA SBFL 16:23 17:50 1.45 hrs 1.27 hrs 205.82 nm 16.30 gal 11.24 gal/hr 0.08 gal/nm 9791 msl 162 kts
Tue, Sep 27, 2016 SBFL SBPA 11:58 13:46 1.8 hrs 1.54 hrs 232.49 nm 19.97 gal 11.08 gal/hr 0.09 gal/nm 8802 msl 151 kts
Sat, Sep 24, 2016 SBFL SBFL 19:23 19:27 0.07 hrs 0.00 hrs 0.00 nm 0.19 gal 2.78 gal/hr 0.00 gal/nm 0 msl 0 kts
Sat, Sep 24, 2016 SBFL SBFL 19:10 19:16 0.11 hrs 0.00 hrs 0.00 nm 0.32 gal 2.83 gal/hr 0.00 gal/nm 0 msl 0 kts
Sat, Sep 17, 2016 SBFL SBFL 13:01 13:56 0.93 hrs 0.64 hrs 75.40 nm 8.72 gal 9.35 gal/hr 0.12 gal/nm 1230 msl 117 kts
Sat, Sep 10, 2016 SBFL SBFL 18:48 20:24 1.6 hrs 1.41 hrs 168.64 nm 15.94 gal 9.99 gal/hr 0.09 gal/nm 1239 msl 120 kts
Fri, Sep 9, 2016 SBFL SBFL 20:32 20:36 0.07 hrs 0.00 hrs 0.00 nm 0.14 gal 2.08 gal/hr 0.00 gal/nm 0 msl 0 kts
Fri, Sep 9, 2016 SBFL SBFL 19:26 20:22 0.93 hrs 0.70 hrs 85.08 nm 8.56 gal 9.20 gal/hr 0.10 gal/nm 1085 msl 121 kts
Fri, Sep 2, 2016 SBFL SBFL 19:15 20:31 1.27 hrs 0.97 hrs 138.18 nm 14.67 gal 11.57 gal/hr 0.11 gal/nm 1715 msl 142 kts
Fri, Aug 12, 2016 SBFL SBFL 19:07 20:14 1.11 hrs 0.83 hrs 107.78 nm 11.23 gal 10.15 gal/hr 0.10 gal/nm 1613 msl 129 kts
Fri, Aug 5, 2016 SBFL SBFL 19:52 19:57 0.07 hrs 0.00 hrs 0.00 nm 0.20 gal 2.75 gal/hr 0.00 gal/nm 0 msl 0 kts
Fri, Aug 5, 2016 SBFL SBFL 18:22 19:44 1.37 hrs 1.15 hrs 148.93 nm 14.72 gal 10.74 gal/hr 0.10 gal/nm 1514 msl 129 kts
Thu, Aug 4, 2016 SBFL SBFL 18:45 19:24 0.66 hrs 0.32 hrs 33.17 nm 4.34 gal 6.62 gal/hr 0.13 gal/nm 1661 msl 103 kts
Mon, Jul 18, 2016 SBFL SBFL 13:49 14:31 0.71 hrs 0.43 hrs 53.72 nm 5.97 gal 8.47 gal/hr 0.11 gal/nm 1527 msl 124 kts
Fri, Jul 15, 2016 SBFL SBFL 19:13 19:54 0.69 hrs 0.47 hrs 49.69 nm 5.76 gal 8.38 gal/hr 0.12 gal/nm 1629 msl 105 kts
Fri, Jul 8, 2016 SBFL SBFL 17:07 17:10 0.05 hrs 0.00 hrs 0.00 nm 0.16 gal 3.51 gal/hr 0.00 gal/nm 0 msl 0 kts
Fri, Jul 8, 2016 SBFL SBFL 16:57 17:01 0.06 hrs 0.00 hrs 0.00 nm 0.15 gal 2.35 gal/hr 0.00 gal/nm 0 msl 0 kts
Fri, Jul 8, 2016 SDAI SBFL 13:40 15:57 2.29 hrs 2.01 hrs 310.05 nm 26.61 gal 11.63 gal/hr 0.09 gal/nm 8787 msl 154 kts
Fri, Jul 8, 2016 SDAI SDAI 12:01 12:35 0.58 hrs 0.34 hrs 45.54 nm 5.40 gal 9.33 gal/hr 0.12 gal/nm 4326 msl 135 kts
Wed, Jul 6, 2016 SDAI SDAI 13:39 13:40 0.03 hrs 0.00 hrs 0.00 nm 0.12 gal 4.46 gal/hr 0.00 gal/nm 0 msl 0 kts
Wed, Jul 6, 2016 SDAI SDAI 13:23 13:38 0.25 hrs 0.00 hrs 0.00 nm 1.10 gal 4.50 gal/hr 0.00 gal/nm 0 msl 0 kts
Mon, Jul 4, 2016 SBFL SDAI 16:10 18:31 2.35 hrs 2.13 hrs 315.69 nm 27.77 gal 11.81 gal/hr 0.09 gal/nm 9704 msl 148 kts
Fri, Jul 1, 2016 SBFL SBFL 19:50 19:52 0.03 hrs 0.00 hrs 0.00 nm 0.08 gal 2.71 gal/hr 0.00 gal/nm 0 msl 0 kts
Fri, Jul 1, 2016 SBFL SBFL 18:38 19:31 0.9 hrs 0.50 hrs 58.57 nm 6.87 gal 7.68 gal/hr 0.12 gal/nm 1630 msl 118 kts
Sun, Jun 26, 2016 SBFL SBFL 20:42 20:47 0.07 hrs 0.00 hrs 0.00 nm 0.20 gal 2.81 gal/hr 0.00 gal/nm 0 msl 0 kts
Sun, Jun 26, 2016 SBFL SBFL 20:26 20:28 0.05 hrs 0.00 hrs 0.00 nm 0.17 gal 3.47 gal/hr 0.00 gal/nm 0 msl 0 kts
Tue, Jun 14, 2016 SBFL SBFL 11:27 11:30 0.05 hrs 0.00 hrs 0.00 nm 0.16 gal 3.19 gal/hr 0.00 gal/nm 0 msl 0 kts
Tue, Jun 14, 2016 SBFL SBFL 11:15 11:23 0.15 hrs 0.00 hrs 0.00 nm 0.65 gal 4.45 gal/hr 0.00 gal/nm 0 msl 0 kts
Sat, Jun 11, 2016 SBBI SBFL 18:27 19:53 1.44 hrs 1.10 hrs 168.19 nm 15.36 gal 10.69 gal/hr 0.09 gal/nm 6774 msl 153 kts
Sat, Jun 11, 2016 SBFL SBBI 13:03 14:23 1.34 hrs 1.09 hrs 165.82 nm 14.12 gal 10.56 gal/hr 0.09 gal/nm 7797 msl 151 kts
Wed, Jun 8, 2016 SBFL SBFL 18:05 18:07 0.05 hrs 0.00 hrs 0.00 nm 0.14 gal 3.10 gal/hr 0.00 gal/nm 0 msl 0 kts
Wed, Jun 8, 2016 SDAI SBFL 15:40 17:52 2.21 hrs 2.03 hrs 310.30 nm 27.30 gal 12.38 gal/hr 0.09 gal/nm 6808 msl 153 kts
Wed, Jun 8, 2016 SDAI SDAI 14:38 15:02 0.39 hrs 0.31 hrs 36.63 nm 4.06 gal 10.36 gal/hr 0.11 gal/nm 3584 msl 119 kts
Wed, Jun 8, 2016 SDAI SDAI 12:31 13:07 0.59 hrs 0.35 hrs 50.57 nm 5.44 gal 9.17 gal/hr 0.11 gal/nm 4030 msl 143 kts
Tue, Jun 7, 2016 SDAI SDAI 19:41 19:43 0.02 hrs 0.00 hrs 0.00 nm 0.06 gal 2.58 gal/hr 0.00 gal/nm 0 msl 0 kts
Tue, Jun 7, 2016 SDAI SDAI 18:58 19:07 0.15 hrs 0.06 hrs 6.44 nm 1.00 gal 6.74 gal/hr 0.16 gal/nm 2505 msl 108 kts
Tue, Jun 7, 2016 SDAI SDAI 18:17 18:37 0.33 hrs 0.20 hrs 25.87 nm 3.00 gal 9.01 gal/hr 0.12 gal/nm 4014 msl 133 kts
Fri, Jun 3, 2016 SDAI SDAI 16:39 16:42 0.04 hrs 0.00 hrs 0.00 nm 0.22 gal 5.33 gal/hr 0.00 gal/nm 0 msl 0 kts
Fri, Jun 3, 2016 SDAI SDAI 16:33 16:34 0.03 hrs 0.00 hrs 0.00 nm 0.09 gal 3.43 gal/hr 0.00 gal/nm 0 msl 0 kts
Thu, Jun 2, 2016 SDAI SDAI 19:09 19:23 0.23 hrs 0.00 hrs 0.00 nm 0.54 gal 2.34 gal/hr 0.00 gal/nm 0 msl 0 kts
Thu, Jun 2, 2016 SDPW SDAI 18:25 18:40 0.25 hrs 0.16 hrs 20.10 nm 2.49 gal 10.09 gal/hr 0.12 gal/nm 3015 msl 126 kts
Thu, Jun 2, 2016 SDAI SDPW 17:45 18:07 0.37 hrs 0.20 hrs 24.13 nm 3.04 gal 8.28 gal/hr 0.13 gal/nm 3230 msl 119 kts
Wed, Jun 1, 2016 SDAI SDAI 17:55 18:17 0.37 hrs 0.00 hrs 0.00 nm 1.38 gal 3.70 gal/hr 0.00 gal/nm 0 msl 0 kts
Wed, Jun 1, 2016 SDAI SDAI 11:57 12:07 0.16 hrs 0.00 hrs 0.00 nm 0.78 gal 4.79 gal/hr 0.00 gal/nm 0 msl 0 kts
Tue, May 31, 2016 SDAI SDAI 17:17 17:28 0.18 hrs 0.00 hrs 0.00 nm 0.54 gal 3.02 gal/hr 0.00 gal/nm 0 msl 0 kts
Mon, May 30, 2016 SDAI SDAI 18:09 18:34 0.42 hrs 0.26 hrs 34.87 nm 4.06 gal 9.71 gal/hr 0.12 gal/nm 4507 msl 134 kts
Mon, May 30, 2016 SDAI SDAI 11:25 11:28 0.05 hrs 0.00 hrs 0.00 nm 0.23 gal 4.36 gal/hr 0.00 gal/nm 0 msl 0 kts
Thu, May 26, 2016 SDAI SDAI 18:47 19:31 0.73 hrs 0.51 hrs 60.81 nm 6.53 gal 8.99 gal/hr 0.11 gal/nm 3904 msl 120 kts
Thu, May 26, 2016 SBKP SBKP 17:18 17:19 0.02 hrs 0.00 hrs 0.00 nm 0.06 gal 2.56 gal/hr 0.00 gal/nm 0 msl 0 kts
Thu, May 26, 2016 SDAI SBKP 16:52 17:15 0.39 hrs 0.17 hrs 22.58 nm 3.11 gal 7.94 gal/hr 0.14 gal/nm 3015 msl 135 kts
Thu, May 26, 2016 SDAI SDAI 13:52 14:00 0.15 hrs 0.00 hrs 0.00 nm 0.58 gal 3.86 gal/hr 0.00 gal/nm 0 msl 0 kts
Wed, May 25, 2016 SDAI SDAI 19:48 20:13 0.42 hrs 0.21 hrs 28.82 nm 3.55 gal 8.45 gal/hr 0.12 gal/nm 3512 msl 139 kts
Wed, May 25, 2016 SDAI SDAI 18:22 18:41 0.32 hrs 0.00 hrs 0.00 nm 1.27 gal 4.02 gal/hr 0.00 gal/nm 0 msl 0 kts
Wed, May 25, 2016 SDAI SDAI 18:21 18:22 0.02 hrs 0.00 hrs 0.00 nm 0.07 gal 3.09 gal/hr 0.00 gal/nm 0 msl 0 kts
Wed, May 25, 2016 SDAI SDAI 17:56 18:12 0.27 hrs 0.00 hrs 0.00 nm 1.08 gal 4.03 gal/hr 0.00 gal/nm 0 msl 0 kts
Wed, May 25, 2016 SDAI SDAI 17:06 17:25 0.31 hrs 0.00 hrs 0.00 nm 1.21 gal 3.87 gal/hr 0.00 gal/nm 0 msl 0 kts
Mon, May 23, 2016 SDAI SDAI 14:41 15:22 0.7 hrs 0.46 hrs 64.93 nm 6.89 gal 9.87 gal/hr 0.11 gal/nm 4332 msl 143 kts
Fri, May 20, 2016 SDAG SDAI 17:08 18:34 1.44 hrs 1.29 hrs 200.39 nm 18.45 gal 12.84 gal/hr 0.09 gal/nm 5011 msl 155 kts
Fri, May 20, 2016 SDAI SDAG 15:20 16:57 1.62 hrs 1.38 hrs 207.76 nm 20.10 gal 12.43 gal/hr 0.10 gal/nm 4981 msl 151 kts
Fri, May 20, 2016 SDAI SDAI 14:36 14:55 0.32 hrs 0.00 hrs 0.00 nm 1.28 gal 4.01 gal/hr 0.00 gal/nm 0 msl 0 kts
          114.79 hrs 81.31 hrs 11966.33 nm 1159.73 gal